Time;durP1;ratioP1;P1;durP2;ratioP2;P2;SDS_P1;SDS_P2;PMS_P1;PMS_P2;Temp;Humidity;BMP_temperature;BMP_pressure;BME280_temperature;BME280_humidity;BME280_pressure;Samples;Min_cycle;Max_cycle;Signal;HPM_P1;HPM_P2
2022/07/05 00:02:14;;;;;;;2.50;1.73;;;23.30;99.90;;;;;;5025316;28;20996;-80
2022/07/05 00:04:42;;;;;;;2.70;2.10;;;23.30;99.90;;;;;;5026036;28;20985;-81
2022/07/05 00:07:21;;;;;;;3.20;1.80;;;23.30;99.90;;;;;;5030283;28;20459;-81
2022/07/05 00:09:51;;;;;;;2.37;2.00;;;23.30;99.90;;;;;;5029433;28;20648;-82
2022/07/05 00:12:20;;;;;;;1.93;1.70;;;23.20;99.90;;;;;;5021267;28;20468;-82
2022/07/05 00:14:49;;;;;;;3.40;1.93;;;23.20;99.90;;;;;;5061096;28;20461;-82
2022/07/05 00:17:19;;;;;;;2.83;1.80;;;23.20;99.90;;;;;;5029609;28;20465;-82
2022/07/05 00:19:47;;;;;;;1.40;1.30;;;23.10;99.90;;;;;;5031821;28;20448;-80
2022/07/05 00:22:15;;;;;;;1.50;1.37;;;23.10;99.90;;;;;;5026031;28;20499;-81
2022/07/05 00:24:44;;;;;;;1.70;1.50;;;23.00;99.90;;;;;;5029057;28;20480;-83
2022/07/05 00:27:13;;;;;;;2.13;1.93;;;23.00;99.90;;;;;;5026726;28;20448;-81
2022/07/05 00:29:41;;;;;;;2.53;2.23;;;22.90;99.90;;;;;;5032982;28;20475;-82
2022/07/05 00:32:10;;;;;;;1.80;1.70;;;22.90;99.90;;;;;;5023792;28;20478;-81
2022/07/05 00:34:40;;;;;;;2.20;1.53;;;22.80;99.90;;;;;;5029147;28;20525;-80
2022/07/05 00:37:08;;;;;;;1.70;1.60;;;22.80;99.90;;;;;;5030718;28;20507;-80
2022/07/05 00:39:37;;;;;;;2.10;2.00;;;22.80;99.90;;;;;;5027170;28;20514;-81
2022/07/05 00:42:05;;;;;;;2.30;2.03;;;22.80;99.90;;;;;;5023467;28;20482;-82
2022/07/05 00:44:36;;;;;;;4.97;1.60;;;22.80;99.90;;;;;;5025997;28;20451;-82
2022/07/05 00:47:05;;;;;;;1.87;1.77;;;22.80;99.90;;;;;;5030806;28;20475;-81
2022/07/05 00:49:34;;;;;;;1.97;1.87;;;22.80;99.90;;;;;;5027050;28;20471;-81
2022/07/05 00:52:05;;;;;;;3.43;1.80;;;22.70;99.90;;;;;;5026988;28;20483;-80
2022/07/05 00:54:49;;;;;;;1.50;1.40;;;22.70;99.90;;;;;;5023954;28;20960;-85
2022/07/05 00:57:19;;;;;;;2.00;1.90;;;22.70;99.90;;;;;;5024012;28;20459;-81
2022/07/05 00:59:47;;;;;;;2.20;1.97;;;22.60;99.90;;;;;;5026733;28;21090;-81
2022/07/05 01:02:15;;;;;;;1.87;1.57;;;22.60;99.90;;;;;;5025388;28;20476;-80
2022/07/05 01:04:49;;;;;;;1.87;1.70;;;22.60;99.90;;;;;;5026034;28;20459;-81
2022/07/05 01:07:21;;;;;;;2.50;2.27;;;22.50;99.90;;;;;;5023106;28;20471;-79
2022/07/05 01:09:49;;;;;;;2.00;1.80;;;22.50;99.90;;;;;;5025189;28;20479;-80
2022/07/05 01:12:18;;;;;;;1.90;1.80;;;22.50;99.90;;;;;;5022055;28;20480;-80
2022/07/05 01:14:47;;;;;;;2.07;1.87;;;22.50;99.90;;;;;;5022124;28;21094;-82
2022/07/05 01:17:16;;;;;;;1.80;1.70;;;22.50;99.90;;;;;;5021546;28;20459;-80
2022/07/05 01:19:45;;;;;;;1.90;1.80;;;22.40;99.90;;;;;;5027865;28;20459;-82
2022/07/05 01:22:19;;;;;;;1.80;1.70;;;22.50;99.90;;;;;;5023257;28;20460;-80
2022/07/05 01:24:50;;;;;;;2.13;1.70;;;22.40;99.90;;;;;;5022799;28;20539;-82
2022/07/05 01:27:19;;;;;;;1.67;1.50;;;22.40;99.90;;;;;;5025370;28;20454;-81
2022/07/05 01:29:48;;;;;;;1.93;1.63;;;22.40;99.90;;;;;;5021203;28;20476;-82
2022/07/05 01:32:16;;;;;;;1.90;1.73;;;22.40;99.90;;;;;;5020144;28;20492;-81
2022/07/05 01:34:45;;;;;;;3.47;1.77;;;22.40;99.90;;;;;;5019051;28;20460;-80
2022/07/05 01:37:14;;;;;;;4.00;2.87;;;22.30;99.90;;;;;;5026026;28;20456;-81
2022/07/05 01:39:42;;;;;;;1.70;1.60;;;22.30;99.90;;;;;;5023735;28;20461;-80
2022/07/05 01:42:12;;;;;;;2.23;2.10;;;22.20;99.90;;;;;;5023780;28;20468;-80
2022/07/05 01:44:40;;;;;;;2.23;1.80;;;22.20;99.90;;;;;;5022606;28;20461;-81
2022/07/05 01:47:09;;;;;;;1.70;1.60;;;22.10;99.90;;;;;;5020806;28;20464;-80
2022/07/05 01:49:44;;;;;;;2.63;2.40;;;22.10;99.90;;;;;;5023544;28;20472;-80
2022/07/05 01:52:13;;;;;;;1.60;1.50;;;22.10;99.90;;;;;;5023427;28;20482;-82
2022/07/05 01:54:43;;;;;;;2.80;1.77;;;22.10;99.90;;;;;;5027310;28;21135;-80
2022/07/05 01:57:13;;;;;;;2.33;1.90;;;22.00;99.90;;;;;;5023930;28;20452;-81
2022/07/05 01:59:42;;;;;;;2.37;2.13;;;22.00;99.90;;;;;;5022166;28;20461;-79
2022/07/05 02:02:11;;;;;;;1.97;1.80;;;22.00;99.90;;;;;;5024066;28;20472;-80
2022/07/05 02:04:39;;;;;;;1.80;1.60;;;22.00;99.90;;;;;;5028728;28;20448;-81
2022/07/05 02:07:09;;;;;;;2.40;1.80;;;22.00;99.90;;;;;;5029847;28;20456;-79
2022/07/05 02:09:38;;;;;;;3.23;1.87;;;22.00;99.90;;;;;;5025553;28;20819;-80
2022/07/05 02:12:07;;;;;;;2.17;1.97;;;21.90;99.90;;;;;;5025001;28;20487;-79
2022/07/05 02:14:37;;;;;;;1.80;1.70;;;21.90;99.90;;;;;;5021296;28;20472;-80
2022/07/05 02:17:05;;;;;;;2.07;1.97;;;21.90;99.90;;;;;;5024192;28;20463;-81
2022/07/05 02:19:35;;;;;;;1.90;1.70;;;21.90;99.90;;;;;;5024593;28;20507;-80
2022/07/05 02:22:03;;;;;;;1.80;1.70;;;21.80;99.90;;;;;;5019692;28;20485;-81
2022/07/05 02:24:32;;;;;;;1.83;1.70;;;21.90;99.90;;;;;;5023377;28;20461;-81
2022/07/05 02:27:01;;;;;;;2.30;1.83;;;21.80;99.90;;;;;;5026555;28;20457;-80
2022/07/05 02:29:29;;;;;;;1.83;1.67;;;21.80;99.90;;;;;;5023562;28;20663;-80
2022/07/05 02:31:59;;;;;;;3.87;2.13;;;21.80;99.90;;;;;;5058836;28;20477;-80
2022/07/05 02:34:27;;;;;;;1.70;1.60;;;21.80;99.90;;;;;;5022715;28;20466;-81
2022/07/05 02:36:55;;;;;;;1.90;1.80;;;21.80;99.90;;;;;;5022019;28;20444;-81
2022/07/05 02:39:24;;;;;;;2.43;1.47;;;21.70;99.90;;;;;;5020153;28;20542;-81
2022/07/05 02:41:52;;;;;;;2.10;1.90;;;21.70;99.90;;;;;;5016471;28;21052;-81
2022/07/05 02:44:20;;;;;;;2.73;1.90;;;21.70;99.90;;;;;;5022183;28;20460;-82
2022/07/05 02:46:48;;;;;;;2.47;1.80;;;21.60;99.90;;;;;;5022959;28;20475;-81
2022/07/05 02:49:18;;;;;;;1.97;1.80;;;21.60;99.90;;;;;;5027771;28;20449;-81
2022/07/05 02:51:46;;;;;;;1.90;1.80;;;21.50;99.90;;;;;;5028673;28;20484;-81
2022/07/05 02:54:15;;;;;;;1.90;1.50;;;21.50;99.90;;;;;;5058990;28;20467;-85
2022/07/05 02:56:43;;;;;;;1.77;1.67;;;21.50;99.90;;;;;;5032305;28;20456;-84
2022/07/05 02:59:11;;;;;;;3.20;1.67;;;21.50;99.90;;;;;;5025750;28;20465;-83
2022/07/05 03:01:40;;;;;;;3.53;1.60;;;21.50;99.90;;;;;;5034668;28;20468;-82
2022/07/05 03:04:09;;;;;;;1.57;1.47;;;21.50;99.90;;;;;;5022824;28;20445;-81
2022/07/05 03:06:40;;;;;;;1.63;1.53;;;21.40;99.90;;;;;;5025810;28;20452;-81
2022/07/05 03:09:08;;;;;;;4.70;1.90;;;21.40;99.90;;;;;;5028828;28;21002;-81
2022/07/05 03:11:37;;;;;;;1.70;1.60;;;21.40;99.90;;;;;;5029634;28;20492;-81
2022/07/05 03:14:05;;;;;;;2.10;1.90;;;21.40;99.90;;;;;;5027625;28;20463;-82
2022/07/05 03:16:33;;;;;;;1.60;1.50;;;21.40;99.90;;;;;;5022897;28;20453;-85
2022/07/05 03:19:02;;;;;;;2.10;1.70;;;21.30;99.90;;;;;;5061070;28;20515;-81
2022/07/05 03:21:30;;;;;;;2.97;1.70;;;21.30;99.90;;;;;;5027238;28;20476;-81
2022/07/05 03:24:00;;;;;;;2.20;2.10;;;21.20;99.90;;;;;;5026698;28;20460;-80
2022/07/05 03:26:28;;;;;;;1.70;1.60;;;21.20;99.90;;;;;;5021863;28;20461;-81
2022/07/05 03:28:57;;;;;;;2.10;1.63;;;21.20;99.90;;;;;;5030229;28;20459;-81
2022/07/05 03:31:25;;;;;;;1.80;1.63;;;21.20;99.90;;;;;;5031107;28;20516;-80
2022/07/05 03:33:53;;;;;;;1.57;1.47;;;21.20;99.90;;;;;;5031444;28;21006;-80
2022/07/05 03:36:22;;;;;;;1.63;1.53;;;21.20;99.90;;;;;;5028613;28;20471;-80
2022/07/05 03:38:50;;;;;;;1.70;1.60;;;21.10;99.90;;;;;;5030714;28;20468;-80
2022/07/05 03:41:20;;;;;;;4.23;1.50;;;21.10;99.90;;;;;;5027334;28;20999;-81
2022/07/05 03:43:48;;;;;;;1.83;1.73;;;21.10;99.90;;;;;;5028395;28;20450;-80
2022/07/05 03:46:16;;;;;;;1.77;1.67;;;21.10;99.90;;;;;;5023592;28;20459;-81
2022/07/05 03:48:44;;;;;;;2.10;2.00;;;21.00;99.90;;;;;;5032328;28;20459;-82
2022/07/05 03:51:13;;;;;;;4.97;2.03;;;21.00;99.90;;;;;;5034124;28;20468;-83
2022/07/05 03:53:41;;;;;;;1.77;1.50;;;21.00;99.90;;;;;;5058194;28;20461;-82
2022/07/05 03:56:10;;;;;;;3.63;1.70;;;20.90;99.90;;;;;;5058018;28;20498;-85
2022/07/05 03:58:39;;;;;;;1.90;1.70;;;20.90;99.90;;;;;;5026362;28;20874;-82
2022/07/05 04:01:08;;;;;;;2.00;1.63;;;20.90;99.90;;;;;;5057093;28;20472;-81
2022/07/05 04:03:36;;;;;;;1.73;1.63;;;20.90;99.90;;;;;;5028929;28;20484;-81
2022/07/05 04:06:08;;;;;;;1.80;1.70;;;20.90;99.90;;;;;;5016686;28;20495;-81
2022/07/05 04:08:37;;;;;;;2.13;1.60;;;20.90;99.90;;;;;;5024376;28;20453;-80
2022/07/05 04:11:06;;;;;;;6.30;3.60;;;21.00;99.90;;;;;;5061773;28;20484;-80
2022/07/05 04:13:34;;;;;;;1.67;1.57;;;21.00;99.90;;;;;;5027897;28;21042;-82
2022/07/05 04:16:04;;;;;;;1.60;1.50;;;21.00;99.90;;;;;;5030906;28;20437;-79
2022/07/05 04:18:32;;;;;;;2.00;1.80;;;21.00;99.90;;;;;;5026753;28;20468;-81
2022/07/05 04:21:01;;;;;;;2.23;2.03;;;21.00;99.90;;;;;;5019170;28;20477;-80
2022/07/05 04:23:29;;;;;;;1.90;1.80;;;21.00;99.90;;;;;;5025971;28;20467;-80
2022/07/05 04:25:58;;;;;;;3.10;2.03;;;21.00;99.90;;;;;;5026660;28;20440;-83
2022/07/05 04:28:26;;;;;;;3.37;1.90;;;21.00;99.90;;;;;;5024663;28;20469;-81
2022/07/05 04:30:54;;;;;;;2.10;2.00;;;21.00;99.90;;;;;;5021422;28;20497;-83
2022/07/05 04:33:24;;;;;;;2.17;2.00;;;21.00;99.90;;;;;;5025554;28;20487;-77
2022/07/05 04:35:52;;;;;;;1.63;1.53;;;21.00;99.90;;;;;;5021168;28;20464;-80
2022/07/05 04:38:21;;;;;;;1.97;1.70;;;20.90;99.90;;;;;;5015598;28;20448;-78
2022/07/05 04:40:49;;;;;;;2.00;1.90;;;20.80;99.90;;;;;;5020517;28;20479;-79
2022/07/05 04:43:17;;;;;;;4.57;1.83;;;20.70;99.90;;;;;;5026366;28;20492;-78
2022/07/05 04:45:46;;;;;;;2.40;2.20;;;20.60;99.90;;;;;;5026294;28;21166;-77
2022/07/05 04:48:14;;;;;;;2.53;2.40;;;20.50;99.90;;;;;;5022568;28;20484;-76
2022/07/05 04:50:44;;;;;;;2.20;2.10;;;20.50;99.90;;;;;;5022814;28;20484;-80
2022/07/05 04:53:12;;;;;;;2.20;1.90;;;20.50;99.90;;;;;;5023752;28;20465;-76
2022/07/05 04:55:40;;;;;;;2.10;1.90;;;20.50;99.90;;;;;;5020139;28;20524;-76
2022/07/05 04:58:08;;;;;;;2.70;1.97;;;20.50;99.90;;;;;;5019087;28;20459;-78
2022/07/05 05:00:36;;;;;;;1.97;1.80;;;20.60;99.90;;;;;;5022774;28;20477;-77
2022/07/05 05:03:05;;;;;;;2.90;1.57;;;20.50;99.90;;;;;;5028308;28;20453;-77
2022/07/05 05:05:33;;;;;;;1.70;1.60;;;20.60;99.90;;;;;;5028943;28;20451;-77
2022/07/05 05:08:03;;;;;;;2.37;2.17;;;20.60;99.90;;;;;;5023447;28;21266;-77
2022/07/05 05:10:31;;;;;;;5.33;1.90;;;20.70;99.90;;;;;;5016272;28;20488;-77
2022/07/05 05:12:59;;;;;;;2.10;1.67;;;20.70;99.90;;;;;;5018767;28;21124;-78
2022/07/05 05:15:27;;;;;;;2.53;2.00;;;20.60;99.90;;;;;;5022602;28;20472;-76
2022/07/05 05:17:56;;;;;;;1.77;1.67;;;20.70;99.90;;;;;;5023903;28;20460;-79
2022/07/05 05:20:24;;;;;;;3.33;1.63;;;20.70;99.90;;;;;;5017107;28;20489;-80
2022/07/05 05:22:52;;;;;;;1.80;1.70;;;20.80;99.90;;;;;;5024486;28;20506;-79
2022/07/05 05:25:22;;;;;;;2.67;1.80;;;20.80;99.90;;;;;;5023435;28;20456;-82
2022/07/05 05:27:51;;;;;;;2.20;1.93;;;20.90;99.90;;;;;;5060003;28;20461;-82
2022/07/05 05:30:20;;;;;;;2.93;1.60;;;21.00;99.90;;;;;;5032381;28;20464;-82
2022/07/05 05:32:48;;;;;;;2.30;1.73;;;21.10;99.90;;;;;;5025904;28;20488;-82
2022/07/05 05:35:20;;;;;;;4.80;1.97;;;21.20;99.90;;;;;;5030665;28;20469;-81
2022/07/05 05:37:51;;;;;;;1.60;1.50;;;21.20;99.90;;;;;;5026178;28;20816;-83
2022/07/05 05:40:21;;;;;;;2.37;1.70;;;21.20;99.90;;;;;;5021748;28;20456;-82
2022/07/05 05:42:50;;;;;;;2.10;1.70;;;21.30;99.90;;;;;;5032947;28;20448;-83
2022/07/05 05:45:19;;;;;;;1.60;1.50;;;21.40;99.90;;;;;;5033322;28;20459;-82
2022/07/05 05:47:49;;;;;;;1.70;1.60;;;21.40;99.90;;;;;;5033173;28;20510;-83
2022/07/05 05:50:21;;;;;;;1.80;1.50;;;21.40;99.90;;;;;;5028776;28;20457;-82
2022/07/05 05:52:50;;;;;;;2.40;1.40;;;21.50;99.90;;;;;;5026641;28;20995;-85
2022/07/05 05:55:18;;;;;;;3.37;1.33;;;21.50;99.90;;;;;;5024036;28;20468;-82
2022/07/05 05:57:48;;;;;;;1.50;1.40;;;21.60;99.90;;;;;;5056248;28;20452;-85
2022/07/05 06:00:18;;;;;;;1.60;1.47;;;21.60;99.90;;;;;;5025924;28;20471;-82
2022/07/05 06:02:49;;;;;;;1.70;1.43;;;21.70;99.90;;;;;;5026649;28;20442;-82
2022/07/05 06:05:18;;;;;;;1.00;1.00;;;21.70;99.90;;;;;;5026801;28;20550;-81
2022/07/05 06:07:49;;;;;;;1.43;1.33;;;21.80;99.90;;;;;;5022876;28;20448;-82
2022/07/05 06:10:19;;;;;;;1.90;1.27;;;21.80;99.90;;;;;;5029786;28;20451;-83
2022/07/05 06:12:50;;;;;;;2.23;1.33;;;21.80;99.90;;;;;;5022837;28;20484;-82
2022/07/05 06:15:19;;;;;;;1.73;1.30;;;21.90;99.90;;;;;;5028308;28;20460;-83
2022/07/05 06:17:48;;;;;;;1.23;1.20;;;21.90;99.90;;;;;;5028015;28;20463;-82
2022/07/05 06:20:18;;;;;;;2.30;1.37;;;22.00;99.90;;;;;;5026275;28;20472;-82
2022/07/05 06:22:47;;;;;;;1.97;1.10;;;21.90;99.90;;;;;;5031176;28;20433;-81
2022/07/05 06:25:15;;;;;;;1.67;1.10;;;22.00;99.90;;;;;;5032089;28;20440;-84
2022/07/05 06:27:56;;;;;;;1.20;1.10;;;22.00;99.90;;;;;;5027636;28;20510;-82
2022/07/05 06:30:26;;;;;;;2.13;1.70;;;22.10;99.90;;;;;;5028955;28;20476;-84
2022/07/05 06:32:55;;;;;;;1.00;1.00;;;22.20;99.90;;;;;;5031799;28;20472;-83
2022/07/05 06:35:24;;;;;;;1.20;1.10;;;22.20;99.90;;;;;;5029705;28;20452;-83
2022/07/05 06:37:54;;;;;;;1.10;1.00;;;22.20;99.90;;;;;;5061764;28;20518;-82
2022/07/05 06:40:23;;;;;;;1.10;1.00;;;22.20;99.90;;;;;;5028615;28;20451;-83
2022/07/05 06:42:54;;;;;;;2.73;1.23;;;22.30;99.90;;;;;;5027849;28;20931;-81
2022/07/05 06:45:23;;;;;;;1.37;0.93;;;22.30;99.90;;;;;;5027732;28;20691;-82
2022/07/05 06:48:02;;;;;;;1.40;1.07;;;22.30;99.90;;;;;;5027815;28;20449;-83
2022/07/05 06:50:32;;;;;;;1.10;1.00;;;22.40;99.90;;;;;;5024233;28;20485;-83
2022/07/05 06:53:00;;;;;;;0.90;0.90;;;22.40;99.90;;;;;;5028125;28;20467;-83
2022/07/05 06:55:29;;;;;;;2.07;1.10;;;22.50;99.90;;;;;;5025076;28;20459;-82
2022/07/05 06:58:00;;;;;;;1.20;1.00;;;22.50;99.90;;;;;;5029088;28;20470;-82
2022/07/05 07:00:45;;;;;;;1.13;0.80;;;22.60;99.90;;;;;;5026765;28;20471;-85
2022/07/05 07:03:34;;;;;;;2.30;1.00;;;22.70;99.90;;;;;;5025293;28;20443;-83
2022/07/05 07:06:22;;;;;;;1.37;1.13;;;22.70;99.90;;;;;;5020217;28;20452;-82
2022/07/05 07:11:36;;;;;;;1.00;0.80;;;22.90;99.90;;;;;;5028650;28;20480;-82
2022/07/05 07:14:06;;;;;;;1.70;0.83;;;22.90;99.90;;;;;;5019609;28;20484;-84
2022/07/05 07:16:34;;;;;;;1.23;0.90;;;22.90;99.90;;;;;;5021388;28;20452;-82
2022/07/05 07:19:03;;;;;;;1.10;1.00;;;23.00;99.90;;;;;;5033712;28;20460;-82
2022/07/05 07:21:42;;;;;;;1.30;1.20;;;23.00;99.90;;;;;;5023110;28;20565;-85
2022/07/05 07:24:11;;;;;;;1.00;0.90;;;23.10;99.90;;;;;;5029385;28;20452;-83
2022/07/05 07:29:27;;;;;;;1.00;0.90;;;23.20;99.90;;;;;;5025786;28;20463;-83
2022/07/05 07:31:56;;;;;;;1.10;1.00;;;23.20;99.90;;;;;;5027041;28;20482;-84
2022/07/05 07:34:25;;;;;;;1.10;1.00;;;23.20;99.90;;;;;;5022487;28;20512;-83
2022/07/05 07:36:54;;;;;;;1.43;0.80;;;23.30;99.90;;;;;;5029227;28;20467;-83
2022/07/05 07:39:23;;;;;;;0.80;0.80;;;23.30;99.90;;;;;;5027018;28;20498;-82
2022/07/05 07:41:50;;;;;;;0.83;0.80;;;23.30;99.90;;;;;;5028728;28;20487;-83
2022/07/05 07:44:19;;;;;;;1.20;1.10;;;23.30;99.90;;;;;;5034783;28;20439;-82
2022/07/05 07:46:49;;;;;;;2.67;1.00;;;23.40;99.90;;;;;;5034584;28;20466;-82
2022/07/05 07:49:18;;;;;;;3.23;0.90;;;23.30;99.90;;;;;;5034624;28;20463;-82
2022/07/05 07:51:46;;;;;;;1.17;1.07;;;23.40;99.90;;;;;;5029630;28;20480;-83
2022/07/05 07:54:15;;;;;;;1.53;0.80;;;23.40;99.90;;;;;;5027328;28;20472;-82
2022/07/05 07:56:43;;;;;;;1.40;1.30;;;23.50;99.90;;;;;;5025289;28;20454;-84
2022/07/05 07:59:12;;;;;;;1.17;0.83;;;23.50;99.90;;;;;;5032516;28;20445;-83
2022/07/05 08:01:41;;;;;;;0.77;0.77;;;23.60;99.90;;;;;;5030591;28;20530;-82
2022/07/05 08:04:15;;;;;;;0.80;0.80;;;23.60;99.90;;;;;;5028418;28;20444;-84
2022/07/05 08:06:45;;;;;;;0.90;0.90;;;23.70;99.90;;;;;;5060919;28;20535;-88
2022/07/05 08:09:15;;;;;;;0.83;0.83;;;23.70;99.90;;;;;;5031422;28;20860;-84
2022/07/05 08:11:46;;;;;;;0.80;0.80;;;23.80;99.90;;;;;;5027014;28;20484;-82
2022/07/05 08:14:16;;;;;;;1.50;0.73;;;23.80;99.90;;;;;;5026729;28;20473;-82
2022/07/05 08:16:46;;;;;;;0.70;0.70;;;23.90;99.90;;;;;;5030946;28;21020;-81
2022/07/05 08:22:08;;;;;;;1.10;1.00;;;24.10;99.90;;;;;;5035288;28;20543;-82
2022/07/05 08:24:39;;;;;;;1.80;0.90;;;24.10;99.90;;;;;;5033596;28;20445;-82
2022/07/05 08:27:08;;;;;;;1.87;0.97;;;24.10;99.90;;;;;;5035028;28;20452;-81
2022/07/05 08:29:37;;;;;;;0.80;0.80;;;24.10;99.90;;;;;;5028659;28;20968;-83
2022/07/05 08:32:07;;;;;;;0.67;0.67;;;24.20;99.90;;;;;;5034878;28;21079;-82
2022/07/05 08:34:37;;;;;;;1.33;1.03;;;24.30;99.90;;;;;;5030881;28;20522;-84
2022/07/05 08:37:05;;;;;;;0.90;0.90;;;24.30;99.90;;;;;;5033714;28;20465;-82
2022/07/05 08:39:42;;;;;;;0.83;0.83;;;24.40;99.90;;;;;;5023962;28;20456;-81
2022/07/05 08:42:11;;;;;;;0.90;0.70;;;24.40;99.90;;;;;;5028052;28;20475;-82
2022/07/05 08:44:42;;;;;;;2.00;0.90;;;24.50;99.90;;;;;;5031905;28;20460;-84
2022/07/05 08:47:13;;;;;;;1.97;0.80;;;24.50;99.90;;;;;;5057611;28;20460;-82
2022/07/05 08:49:48;;;;;;;1.40;0.70;;;24.50;99.90;;;;;;5027058;28;20453;-84
2022/07/05 08:52:19;;;;;;;1.00;0.90;;;24.60;99.90;;;;;;5030593;28;20480;-82
2022/07/05 08:54:52;;;;;;;2.20;0.97;;;24.60;99.90;;;;;;5029324;28;20488;-81
2022/07/05 08:57:20;;;;;;;1.70;0.80;;;24.70;99.90;;;;;;5031860;28;20496;-85
2022/07/05 08:59:48;;;;;;;0.90;0.73;;;24.70;99.90;;;;;;5027333;28;20458;-82
2022/07/05 09:02:17;;;;;;;0.80;0.80;;;24.80;99.90;;;;;;5026398;28;20476;-81
2022/07/05 09:04:50;;;;;;;2.20;0.90;;;24.80;99.90;;;;;;5021474;28;20449;-82
2022/07/05 09:07:23;;;;;;;0.90;0.90;;;24.90;99.90;;;;;;5032344;28;20460;-83
2022/07/05 09:09:52;;;;;;;1.67;0.80;;;24.90;99.90;;;;;;5033072;28;20448;-81
2022/07/05 09:12:21;;;;;;;0.87;0.80;;;24.90;99.90;;;;;;5032422;28;20479;-82
2022/07/05 09:14:55;;;;;;;0.80;0.80;;;25.00;99.90;;;;;;5027757;28;20491;-83
2022/07/05 09:17:25;;;;;;;0.80;0.80;;;25.00;99.90;;;;;;5028678;28;20487;-81
2022/07/05 09:20:11;;;;;;;1.90;0.90;;;25.10;99.90;;;;;;5029707;28;20455;-83
2022/07/05 09:22:49;;;;;;;0.73;0.73;;;25.20;99.90;;;;;;5022391;28;20457;-81
2022/07/05 09:25:20;;;;;;;1.87;0.70;;;25.10;99.90;;;;;;5028852;28;20458;-82
2022/07/05 09:27:51;;;;;;;0.83;0.80;;;25.20;99.90;;;;;;5029612;28;20492;-84
2022/07/05 09:30:28;;;;;;;1.33;0.83;;;25.20;99.90;;;;;;5057352;28;20453;-81
2022/07/05 09:33:17;;;;;;;1.23;0.90;;;25.20;99.90;;;;;;5023646;28;20459;-80
2022/07/05 09:35:57;;;;;;;0.60;0.60;;;25.20;99.90;;;;;;5020989;28;20444;-81
2022/07/05 09:38:29;;;;;;;1.13;0.70;;;25.10;99.90;;;;;;5029314;28;20464;-82
2022/07/05 09:41:00;;;;;;;0.73;0.73;;;25.10;99.90;;;;;;5029641;28;20530;-85
2022/07/05 09:43:30;;;;;;;0.80;0.80;;;25.10;99.90;;;;;;5031989;28;20480;-83
2022/07/05 09:46:00;;;;;;;0.80;0.80;;;25.20;99.90;;;;;;5018536;28;20886;-82
2022/07/05 09:48:30;;;;;;;0.70;0.70;;;25.20;99.90;;;;;;5054791;28;20446;-82
2022/07/05 09:51:11;;;;;;;1.93;0.97;;;25.30;99.90;;;;;;5029248;28;20472;-81
2022/07/05 09:54:01;;;;;;;0.83;0.80;;;25.40;99.90;;;;;;5025967;28;20465;-84
2022/07/05 09:56:45;;;;;;;1.00;0.90;;;25.50;99.90;;;;;;5028976;28;20486;-82
2022/07/05 09:59:19;;;;;;;0.80;0.80;;;25.40;99.90;;;;;;5042998;28;20456;-86
2022/07/05 10:01:49;;;;;;;1.53;0.80;;;25.50;99.90;;;;;;5029243;28;20483;-84
2022/07/05 10:04:19;;;;;;;0.83;0.80;;;25.40;99.90;;;;;;5024257;28;20453;-85
2022/07/05 10:06:49;;;;;;;1.43;0.73;;;25.50;99.90;;;;;;5028900;28;20476;-82
2022/07/05 10:09:20;;;;;;;2.07;1.00;;;25.50;99.90;;;;;;5029919;28;20458;-81
2022/07/05 10:11:48;;;;;;;1.00;1.00;;;25.60;99.90;;;;;;5028632;28;20473;-80
2022/07/05 10:14:19;;;;;;;1.00;0.83;;;25.60;99.90;;;;;;5030904;28;21007;-81
2022/07/05 10:17:00;;;;;;;2.00;0.70;;;25.70;99.90;;;;;;5022555;28;20873;-82
2022/07/05 10:19:35;;;;;;;1.30;1.07;;;25.70;99.90;;;;;;5029451;28;20467;-81
2022/07/05 10:22:07;;;;;;;0.70;0.70;;;25.80;99.90;;;;;;5029632;28;20570;-83
2022/07/05 10:24:52;;;;;;;0.80;0.80;;;25.80;99.90;;;;;;5023139;28;20452;-81
2022/07/05 10:27:20;;;;;;;0.80;0.80;;;25.80;99.90;;;;;;5027166;28;20460;-83
2022/07/05 10:29:50;;;;;;;2.63;0.70;;;25.80;99.90;;;;;;5028327;28;20819;-82
2022/07/05 10:32:20;;;;;;;0.70;0.70;;;25.80;99.90;;;;;;5029098;28;20488;-81
2022/07/05 10:34:51;;;;;;;0.80;0.80;;;25.80;99.90;;;;;;5025545;28;20487;-83
2022/07/05 10:37:27;;;;;;;0.80;0.70;;;25.80;99.90;;;;;;5059117;28;20485;-84
2022/07/05 10:39:57;;;;;;;0.73;0.70;;;25.80;99.90;;;;;;5020051;28;20463;-83
2022/07/05 10:42:28;;;;;;;1.00;0.90;;;25.90;99.90;;;;;;5027547;28;20488;-81
2022/07/05 10:44:57;;;;;;;0.73;0.73;;;25.90;99.90;;;;;;5027969;28;20511;-81
2022/07/05 10:47:27;;;;;;;0.67;0.67;;;25.90;99.90;;;;;;5030832;28;20471;-83
2022/07/05 10:50:03;;;;;;;0.80;0.80;;;25.90;99.90;;;;;;5024294;28;20544;-87
2022/07/05 10:52:33;;;;;;;1.03;0.80;;;26.00;99.90;;;;;;5028821;28;20824;-82
2022/07/05 10:55:23;;;;;;;1.03;0.90;;;26.00;99.90;;;;;;5027293;28;20477;-82
2022/07/05 10:58:36;;;;;;;1.10;0.70;;;26.00;99.90;;;;;;5028195;28;20464;-82
2022/07/05 11:01:44;;;;;;;1.70;0.73;;;26.00;99.90;;;;;;5029414;28;20546;-83
2022/07/05 11:04:35;;;;;;;1.07;1.00;;;26.00;99.90;;;;;;5027879;28;20441;-80
2022/07/05 11:07:05;;;;;;;2.23;0.77;;;26.10;99.90;;;;;;5024540;28;20894;-84
2022/07/05 11:09:36;;;;;;;0.70;0.70;;;26.10;99.90;;;;;;5031733;28;20451;-82
2022/07/05 11:12:09;;;;;;;1.27;0.80;;;26.10;99.90;;;;;;5033518;28;20493;-83
2022/07/05 11:15:10;;;;;;;0.90;0.90;;;26.10;99.90;;;;;;5032868;28;20468;-83
2022/07/05 11:17:39;;;;;;;0.70;0.70;;;26.10;99.90;;;;;;5028232;28;20831;-83
2022/07/05 11:20:32;;;;;;;0.80;0.80;;;26.20;99.90;;;;;;5027639;28;20507;-82
2022/07/05 11:23:12;;;;;;;1.13;0.80;;;26.20;99.90;;;;;;5028679;28;20463;-86
2022/07/05 11:25:47;;;;;;;1.43;0.80;;;26.20;99.90;;;;;;5035769;28;20433;-83
2022/07/05 11:28:24;;;;;;;0.80;0.80;;;26.20;99.90;;;;;;5040579;28;20447;-82
2022/07/05 11:30:55;;;;;;;0.80;0.80;;;26.30;99.90;;;;;;5030431;28;20483;-84
2022/07/05 11:33:44;;;;;;;0.90;0.80;;;26.30;99.90;;;;;;5029127;28;20520;-82
2022/07/05 11:36:25;;;;;;;0.90;0.90;;;26.40;99.90;;;;;;5018836;28;20527;-81
2022/07/05 11:39:15;;;;;;;0.80;0.80;;;26.40;99.90;;;;;;5029857;28;20452;-81
2022/07/05 11:41:47;;;;;;;0.93;0.70;;;26.50;99.90;;;;;;5025609;28;20469;-82
2022/07/05 11:44:16;;;;;;;1.00;0.90;;;26.50;99.90;;;;;;5028492;28;20453;-82
2022/07/05 11:46:45;;;;;;;1.33;0.70;;;26.50;99.90;;;;;;5025877;28;20469;-82
2022/07/05 11:49:21;;;;;;;1.60;0.97;;;26.60;99.90;;;;;;5027220;28;20820;-79
2022/07/05 11:51:57;;;;;;;1.00;1.00;;;26.60;99.90;;;;;;5025490;28;20507;-82
2022/07/05 11:54:27;;;;;;;0.70;0.70;;;26.60;99.90;;;;;;5023604;28;20843;-81
2022/07/05 11:56:57;;;;;;;1.00;0.90;;;26.50;99.90;;;;;;5029558;28;20460;-81
2022/07/05 11:59:26;;;;;;;1.17;1.00;;;26.60;99.90;;;;;;5058559;28;20476;-80
2022/07/05 12:01:55;;;;;;;1.10;0.80;;;26.60;99.90;;;;;;5062488;28;21218;-82
2022/07/05 12:04:25;;;;;;;0.70;0.70;;;26.50;99.90;;;;;;5028197;28;20464;-81
2022/07/05 12:06:55;;;;;;;0.80;0.80;;;26.50;99.90;;;;;;5027113;28;20487;-81
2022/07/05 12:09:25;;;;;;;1.03;0.70;;;26.50;99.90;;;;;;5028075;28;20492;-81
2022/07/05 12:14:50;;;;;;;0.80;0.80;;;26.50;99.90;;;;;;5024037;28;20448;-85
2022/07/05 12:17:19;;;;;;;0.80;0.80;;;26.50;99.90;;;;;;5028253;28;20448;-81
2022/07/05 12:19:54;;;;;;;0.80;0.80;;;26.50;99.90;;;;;;5027845;28;20451;-82
2022/07/05 12:22:33;;;;;;;1.97;0.70;;;26.60;99.90;;;;;;5025156;28;20473;-84
2022/07/05 12:25:03;;;;;;;0.90;0.90;;;26.60;99.90;;;;;;5026921;28;20449;-86
2022/07/05 12:27:35;;;;;;;1.00;0.90;;;26.60;99.90;;;;;;5029065;28;20978;-81
2022/07/05 12:30:04;;;;;;;1.83;1.20;;;26.70;99.90;;;;;;5022604;28;20468;-83
2022/07/05 12:32:36;;;;;;;1.00;0.80;;;26.70;99.90;;;;;;5028554;28;20476;-80
2022/07/05 12:35:05;;;;;;;0.90;0.90;;;26.70;99.90;;;;;;5025550;28;20511;-82
2022/07/05 12:37:34;;;;;;;1.47;1.00;;;26.70;99.90;;;;;;5024431;28;20460;-82
2022/07/05 12:40:06;;;;;;;3.33;0.80;;;26.70;99.90;;;;;;5060023;28;20511;-81
2022/07/05 12:42:37;;;;;;;1.77;1.40;;;26.70;99.90;;;;;;5028792;28;20976;-82
2022/07/05 12:45:11;;;;;;;1.00;0.90;;;26.70;99.90;;;;;;5029395;28;21097;-82
2022/07/05 12:47:50;;;;;;;0.80;0.80;;;26.80;99.90;;;;;;5037735;28;20457;-81
2022/07/05 12:50:18;;;;;;;2.30;1.00;;;26.80;99.90;;;;;;5029802;28;20471;-84
2022/07/05 12:59:05;;;;;;;0.90;0.80;;;26.80;99.90;;;;;;4990405;28;20899;-83
2022/07/05 13:01:37;;;;;;;0.80;0.80;;;26.80;99.90;;;;;;5004369;28;20473;-82
2022/07/05 13:04:10;;;;;;;0.90;0.90;;;26.70;99.90;;;;;;5020215;28;20464;-82
2022/07/05 13:06:57;;;;;;;1.00;0.90;;;26.80;99.90;;;;;;5031214;28;20437;-82
2022/07/05 13:09:36;;;;;;;1.33;0.90;;;26.70;99.90;;;;;;5029352;28;20465;-83
2022/07/05 13:12:10;;;;;;;0.80;0.80;;;26.80;99.90;;;;;;5028927;28;20818;-82
2022/07/05 13:14:41;;;;;;;1.93;1.00;;;26.80;99.90;;;;;;5031627;28;20547;-83
2022/07/05 13:17:11;;;;;;;1.63;1.53;;;26.80;99.90;;;;;;5023420;28;20488;-83
2022/07/05 13:19:42;;;;;;;0.90;0.90;;;26.90;99.90;;;;;;5030449;28;20480;-82
2022/07/05 13:22:11;;;;;;;1.00;0.90;;;26.90;99.90;;;;;;5030384;28;20468;-81
2022/07/05 13:24:40;;;;;;;0.90;0.90;;;26.90;99.90;;;;;;5024562;28;20456;-82
2022/07/05 13:27:10;;;;;;;1.30;0.73;;;27.00;99.90;;;;;;5031320;28;20449;-82